createdAt,value
2022-10-25T00:00:28.986Z,12.09
2022-10-25T00:03:37.765Z,12.09
2022-10-25T00:06:43.771Z,12.01
2022-10-25T00:09:52.297Z,11.92
2022-10-25T00:12:58.611Z,11.88
2022-10-25T00:16:04.534Z,11.86
2022-10-25T00:19:12.011Z,11.78
2022-10-25T00:22:21.057Z,11.73
2022-10-25T00:25:29.377Z,11.56
2022-10-25T00:28:35.533Z,11.63
2022-10-25T00:31:42.423Z,11.48
2022-10-25T00:34:48.124Z,11.56
2022-10-25T00:37:54.556Z,11.51
2022-10-25T00:41:04.315Z,11.44
2022-10-25T00:44:53.559Z,11.43
2022-10-25T00:48:07.075Z,11.49
2022-10-25T00:51:13.376Z,11.42
2022-10-25T00:54:28.873Z,11.36
2022-10-25T00:57:46.152Z,11.16
2022-10-25T01:00:52.718Z,11.30
2022-10-25T01:04:06.081Z,11.18
2022-10-25T01:07:11.680Z,11.21
2022-10-25T01:10:17.437Z,11.10
2022-10-25T01:13:26.093Z,11.10
2022-10-25T01:16:48.774Z,11.04
2022-10-25T01:20:59.967Z,11.07
2022-10-25T01:24:52.410Z,11.03
2022-10-25T01:28:18.649Z,10.90
2022-10-25T01:31:43.852Z,10.98
2022-10-25T01:35:01.347Z,10.89
2022-10-25T01:38:45.004Z,10.97
2022-10-25T01:42:18.858Z,10.95
2022-10-25T01:45:37.208Z,10.85
2022-10-25T01:48:53.884Z,10.91
2022-10-25T01:51:59.543Z,10.87
2022-10-25T01:55:11.165Z,10.90
2022-10-25T01:58:41.544Z,11.03
2022-10-25T02:02:09.527Z,11.10
2022-10-25T02:05:30.670Z,10.96
2022-10-25T02:08:46.908Z,10.93
2022-10-25T02:11:56.471Z,10.99
2022-10-25T02:15:18.829Z,10.95
2022-10-25T02:18:33.772Z,10.94
2022-10-25T02:21:47.005Z,10.83
2022-10-25T02:24:58.240Z,10.89
2022-10-25T02:28:10.101Z,10.99
2022-10-25T02:31:22.823Z,10.90
2022-10-25T02:34:28.864Z,10.81
2022-10-25T02:37:37.100Z,10.60
2022-10-25T02:40:46.423Z,10.59
2022-10-25T02:43:52.566Z,10.49
2022-10-25T02:47:04.837Z,10.38
2022-10-25T02:50:11.567Z,10.42
2022-10-25T02:53:25.312Z,10.33
2022-10-25T02:56:31.455Z,10.28
2022-10-25T02:59:37.026Z,10.21
2022-10-25T03:02:42.599Z,10.28
2022-10-25T03:05:48.212Z,10.32
2022-10-25T03:08:56.424Z,10.39
2022-10-25T03:12:02.063Z,10.38
2022-10-25T03:15:09.745Z,10.35
2022-10-25T03:18:16.581Z,10.21
2022-10-25T03:21:22.082Z,10.25
2022-10-25T03:24:30.322Z,10.16
2022-10-25T03:27:35.886Z,10.34
2022-10-25T03:30:41.655Z,10.19
2022-10-25T03:33:48.059Z,10.26
2022-10-25T03:36:55.191Z,10.15
2022-10-25T03:40:03.561Z,10.19
2022-10-25T03:43:09.161Z,10.33
2022-10-25T03:46:16.292Z,10.29
2022-10-25T03:49:22.089Z,10.22
2022-10-25T03:52:28.214Z,10.34
2022-10-25T03:55:37.802Z,10.38
2022-10-25T03:58:43.464Z,10.47
2022-10-25T04:01:49.259Z,10.57
2022-10-25T04:04:55.278Z,10.56
2022-10-25T04:08:01.384Z,10.47
2022-10-25T04:11:09.763Z,10.53
2022-10-25T04:14:15.468Z,10.62
2022-10-25T04:17:21.255Z,10.69
2022-10-25T04:20:27.130Z,10.52
2022-10-25T04:23:32.978Z,10.60
2022-10-25T04:26:41.274Z,10.76
2022-10-25T04:29:46.852Z,10.77
2022-10-25T04:32:52.671Z,10.76
2022-10-25T04:35:59.459Z,10.72
2022-10-25T04:39:05.023Z,10.68
2022-10-25T04:42:13.330Z,10.75
2022-10-25T04:45:19.115Z,10.77
2022-10-25T04:48:25.583Z,10.58
2022-10-25T04:51:31.292Z,10.53
2022-10-25T04:54:36.854Z,10.72
2022-10-25T04:57:45.096Z,10.59
2022-10-25T05:00:50.860Z,10.63
2022-10-25T05:03:56.440Z,10.70
2022-10-25T05:07:02.255Z,10.90
2022-10-25T05:10:21.128Z,10.88
2022-10-25T05:13:29.256Z,10.93
2022-10-25T05:16:35.526Z,10.94
2022-10-25T05:19:41.141Z,10.92
2022-10-25T05:22:46.972Z,10.94
2022-10-25T05:26:03.391Z,10.78
2022-10-25T05:29:15.799Z,10.83
2022-10-25T05:32:21.419Z,10.83
2022-10-25T05:35:27.061Z,10.80
2022-10-25T05:38:36.948Z,10.74
2022-10-25T05:41:43.525Z,10.73
2022-10-25T05:44:51.803Z,10.81
2022-10-25T05:47:57.403Z,10.84
2022-10-25T05:54:42.644Z,10.80
2022-10-25T05:57:55.962Z,10.88
2022-10-25T06:01:05.500Z,11.00
2022-10-25T06:04:12.685Z,10.95
2022-10-25T06:07:18.420Z,11.03
2022-10-25T06:10:24.159Z,11.05
2022-10-25T06:13:29.746Z,11.18
2022-10-25T06:16:41.174Z,11.29
2022-10-25T06:19:46.859Z,11.38
2022-10-25T06:22:52.552Z,11.40
2022-10-25T06:26:04.081Z,11.61
2022-10-25T06:29:10.012Z,11.78
2022-10-25T06:32:18.348Z,11.57
2022-10-25T06:35:24.190Z,11.76
2022-10-25T06:38:29.936Z,11.79
2022-10-25T06:41:37.452Z,12.12
2022-10-25T06:44:43.462Z,12.10
2022-10-25T06:47:51.808Z,11.97
2022-10-25T06:51:05.717Z,12.11
2022-10-25T06:54:12.300Z,11.86
2022-10-25T06:57:18.080Z,11.70
2022-10-25T07:00:24.146Z,11.61
2022-10-25T07:03:35.366Z,11.68
2022-10-25T07:06:41.046Z,11.30
2022-10-25T07:09:47.303Z,11.45
2022-10-25T07:12:53.025Z,11.30
2022-10-25T07:16:06.144Z,11.13
2022-10-25T07:19:14.560Z,11.13
2022-10-25T07:22:20.070Z,11.10
2022-10-25T07:25:25.585Z,11.11
2022-10-25T07:28:31.280Z,11.34
2022-10-25T07:31:41.052Z,11.36
2022-10-25T07:39:26.120Z,11.54
2022-10-25T07:42:31.817Z,11.17
2022-10-25T07:45:37.612Z,10.76
2022-10-25T07:48:43.590Z,10.96
2022-10-25T07:51:49.114Z,10.89
2022-10-25T07:54:57.402Z,10.95
2022-10-25T07:58:04.626Z,10.82
2022-10-25T08:01:13.342Z,10.58
2022-10-25T08:04:19.634Z,10.66
2022-10-25T08:07:25.334Z,10.64
2022-10-25T08:10:33.997Z,10.75
2022-10-25T08:13:41.030Z,10.58
2022-10-25T08:16:46.814Z,10.48
2022-10-25T08:19:52.404Z,10.38
2022-10-25T08:23:01.120Z,10.52
2022-10-25T08:26:10.005Z,10.48
2022-10-25T08:29:15.640Z,10.49
2022-10-25T08:32:21.281Z,10.46
2022-10-25T08:35:26.912Z,10.47
2022-10-25T08:38:33.014Z,10.58
2022-10-25T08:41:54.173Z,10.63
2022-10-25T08:45:16.753Z,10.82
2022-10-25T08:48:31.142Z,10.91
2022-10-25T08:51:44.849Z,11.14
2022-10-25T08:54:53.030Z,11.38
2022-10-25T08:58:03.580Z,11.46
2022-10-25T09:01:30.172Z,11.59
2022-10-25T09:04:39.678Z,11.23
2022-10-25T09:08:28.916Z,11.10
2022-10-25T09:11:58.142Z,11.24
2022-10-25T09:15:21.614Z,11.34
2022-10-25T09:18:44.556Z,11.52
2022-10-25T09:22:00.260Z,11.87
2022-10-25T09:25:23.168Z,12.07
2022-10-25T09:28:52.391Z,12.38
2022-10-25T09:32:03.656Z,12.87
2022-10-25T09:35:19.592Z,13.18
2022-10-25T09:38:32.581Z,13.30
2022-10-25T09:41:46.322Z,13.86
2022-10-25T09:45:00.213Z,14.71
2022-10-25T09:48:25.788Z,15.76
2022-10-25T09:51:46.780Z,16.41
2022-10-25T09:54:57.890Z,16.74
2022-10-25T09:58:05.293Z,17.08
2022-10-25T10:01:20.140Z,17.75
2022-10-25T10:04:39.655Z,17.69
2022-10-25T10:07:48.018Z,17.02
2022-10-25T10:10:57.330Z,16.46
2022-10-25T10:14:13.691Z,15.50
2022-10-25T10:17:26.027Z,15.60
2022-10-25T10:20:35.106Z,15.18
2022-10-25T10:23:54.628Z,15.25
2022-10-25T10:27:04.809Z,15.31
2022-10-25T10:30:24.936Z,15.79
2022-10-25T10:33:36.160Z,16.64
2022-10-25T10:36:47.671Z,16.70
2022-10-25T10:39:56.716Z,16.38
2022-10-25T10:43:04.900Z,16.34
2022-10-25T10:46:20.105Z,16.45
2022-10-25T10:49:40.397Z,15.94
2022-10-25T10:52:54.021Z,15.85
2022-10-25T10:56:17.354Z,15.60
2022-10-25T10:59:47.648Z,16.10
2022-10-25T11:02:54.362Z,15.88
2022-10-25T11:06:07.764Z,16.45
2022-10-25T11:09:27.785Z,17.22
2022-10-25T11:12:36.529Z,18.19
2022-10-25T11:16:24.426Z,18.34
2022-10-25T11:20:21.585Z,18.35
2022-10-25T11:23:46.504Z,18.85
2022-10-25T11:27:13.917Z,18.16
2022-10-25T11:30:24.126Z,18.51
2022-10-25T11:33:55.941Z,18.53
2022-10-25T11:37:22.977Z,18.47
2022-10-25T11:40:35.711Z,18.45
2022-10-25T11:44:21.269Z,18.22
2022-10-25T11:47:46.176Z,18.13
2022-10-25T11:51:05.762Z,18.01
2022-10-25T11:54:32.973Z,17.33
2022-10-25T11:57:58.607Z,17.12
2022-10-25T12:01:28.622Z,17.37
2022-10-25T12:04:59.955Z,18.07
2022-10-25T12:08:29.297Z,18.06
2022-10-25T12:11:45.088Z,17.79
2022-10-25T12:14:59.715Z,17.52
2022-10-25T12:18:27.944Z,17.28
2022-10-25T12:21:49.378Z,17.11
2022-10-25T12:25:08.031Z,16.88
2022-10-25T12:28:28.088Z,16.59
2022-10-25T12:31:43.654Z,16.25
2022-10-25T12:34:57.200Z,16.02
2022-10-25T12:38:14.563Z,15.84
2022-10-25T12:41:30.391Z,15.70
2022-10-25T12:45:17.132Z,15.60
2022-10-25T12:49:03.667Z,15.41
2022-10-25T12:52:34.967Z,15.37
2022-10-25T12:56:04.554Z,15.09
2022-10-25T12:59:32.948Z,14.83
2022-10-25T13:03:31.547Z,14.78
2022-10-25T13:06:41.737Z,14.59
2022-10-25T13:09:51.411Z,14.35
2022-10-25T13:13:05.386Z,14.37
2022-10-25T13:16:14.117Z,14.42
2022-10-25T13:20:00.937Z,14.26
2022-10-25T13:22:56.769Z,14.27
2022-10-25T13:26:12.472Z,14.27
2022-10-25T13:29:51.376Z,14.34
2022-10-25T13:33:33.746Z,14.50
2022-10-25T13:36:53.992Z,14.44
2022-10-25T13:40:03.118Z,14.39
2022-10-25T13:43:24.377Z,14.31
2022-10-25T13:46:37.755Z,14.31
2022-10-25T13:49:51.103Z,14.30
2022-10-25T13:53:06.309Z,13.95
2022-10-25T13:56:19.353Z,13.85
2022-10-25T14:00:03.484Z,13.97
2022-10-25T14:03:37.665Z,14.19
2022-10-25T14:06:44.882Z,14.41
2022-10-25T14:09:57.143Z,14.41
2022-10-25T14:13:19.819Z,14.32
2022-10-25T14:16:35.144Z,14.39
2022-10-25T14:19:48.287Z,14.13
2022-10-25T14:23:00.775Z,14.13
2022-10-25T14:26:15.678Z,14.12
2022-10-25T14:29:25.163Z,14.10
2022-10-25T14:32:33.457Z,14.02
2022-10-25T14:35:49.843Z,13.80
2022-10-25T14:38:58.445Z,13.46
2022-10-25T14:42:06.710Z,13.23
2022-10-25T14:45:25.152Z,13.20
2022-10-25T14:48:34.612Z,13.12
2022-10-25T14:51:46.176Z,13.15
2022-10-25T14:55:02.859Z,13.12
2022-10-25T14:58:14.569Z,13.07
2022-10-25T15:01:25.314Z,12.91
2022-10-25T15:04:40.901Z,12.97
2022-10-25T15:07:51.553Z,13.16
2022-10-25T15:11:10.302Z,13.26
2022-10-25T15:14:24.916Z,13.33
2022-10-25T15:17:33.897Z,13.27
2022-10-25T15:20:42.340Z,13.32
2022-10-25T15:24:16.016Z,13.37
2022-10-25T15:27:36.794Z,13.31
2022-10-25T15:31:00.515Z,13.31
2022-10-25T15:34:08.959Z,13.32
2022-10-25T15:37:21.053Z,13.27
2022-10-25T15:40:26.866Z,13.15
2022-10-25T15:43:32.845Z,13.04
2022-10-25T15:46:38.828Z,13.02
2022-10-25T15:49:44.567Z,12.82
2022-10-25T15:52:52.844Z,12.74
2022-10-25T15:55:58.509Z,12.70
2022-10-25T15:59:04.520Z,12.70
2022-10-25T16:02:22.995Z,12.56
2022-10-25T16:05:32.388Z,12.38
2022-10-25T16:08:40.595Z,12.35
2022-10-25T16:11:57.079Z,12.30
2022-10-25T16:15:05.229Z,12.22
2022-10-25T16:18:19.155Z,12.13
2022-10-25T16:21:26.733Z,12.12
2022-10-25T16:24:35.005Z,12.07
2022-10-25T16:27:41.368Z,12.07
2022-10-25T16:30:47.109Z,12.02
2022-10-25T16:33:52.812Z,11.95
2022-10-25T16:36:58.577Z,11.87
2022-10-25T16:40:09.211Z,11.88
2022-10-25T16:43:17.129Z,11.81
2022-10-25T16:46:22.709Z,11.77
2022-10-25T16:49:28.629Z,11.73
2022-10-25T16:52:34.415Z,11.70
2022-10-25T16:55:45.865Z,11.67
2022-10-25T16:58:51.585Z,11.66
2022-10-25T17:02:02.135Z,11.66
2022-10-25T17:05:24.939Z,11.57
2022-10-25T17:08:30.514Z,11.55
2022-10-25T17:11:45.680Z,11.46
2022-10-25T17:14:53.389Z,11.57
2022-10-25T17:18:01.483Z,11.61
2022-10-25T17:21:19.276Z,11.62
2022-10-25T17:24:27.136Z,11.55
2022-10-25T17:27:54.237Z,11.51
2022-10-25T17:31:19.621Z,11.51
2022-10-25T17:34:25.858Z,11.50
2022-10-25T17:37:32.167Z,11.35
2022-10-25T17:40:49.664Z,11.32
2022-10-25T17:44:00.987Z,11.26
2022-10-25T17:47:06.883Z,11.26
2022-10-25T17:50:17.437Z,11.19
2022-10-25T17:53:26.103Z,11.16
2022-10-25T18:00:00.322Z,11.20
2022-10-25T18:03:17.888Z,11.19
2022-10-25T18:06:26.771Z,11.21
2022-10-25T18:09:32.359Z,11.07
2022-10-25T18:12:37.999Z,11.00
2022-10-25T18:15:49.670Z,10.92
2022-10-25T18:18:55.865Z,10.99
2022-10-25T18:22:04.906Z,10.99
2022-10-25T18:25:13.982Z,11.05
2022-10-25T18:28:19.745Z,11.07
2022-10-25T18:31:31.445Z,11.05
2022-10-25T18:34:37.063Z,11.17
2022-10-25T18:37:54.100Z,11.16
2022-10-25T18:41:00.821Z,11.22
2022-10-25T18:44:15.379Z,11.32
2022-10-25T18:47:23.948Z,11.42
2022-10-25T18:50:29.719Z,11.38
2022-10-25T18:53:36.406Z,11.40
2022-10-25T18:56:42.433Z,11.37
2022-10-25T18:59:48.203Z,11.46
2022-10-25T19:02:57.415Z,11.51
2022-10-25T19:06:03.181Z,11.49
2022-10-25T19:09:11.922Z,11.51
2022-10-25T19:12:20.584Z,11.47
2022-10-25T19:15:26.356Z,11.38
2022-10-25T19:18:36.571Z,11.32
2022-10-25T19:21:46.270Z,11.40
2022-10-25T19:24:52.072Z,11.38
2022-10-25T19:28:02.168Z,11.20
2022-10-25T19:31:12.095Z,11.00
2022-10-25T19:34:20.978Z,10.89
2022-10-25T19:37:26.963Z,10.80
2022-10-25T19:40:32.866Z,10.69
2022-10-25T19:43:39.245Z,10.59
2022-10-25T19:46:45.235Z,10.48
2022-10-25T19:49:53.573Z,10.48
2022-10-25T19:52:59.218Z,10.43
2022-10-25T19:56:07.839Z,10.40
2022-10-25T19:59:15.361Z,10.32
2022-10-25T20:02:21.227Z,10.33
2022-10-25T20:05:29.878Z,10.29
2022-10-25T20:08:37.903Z,10.26
2022-10-25T20:11:43.627Z,10.15
2022-10-25T20:14:49.192Z,10.20
2022-10-25T20:17:54.842Z,10.20
2022-10-25T20:21:07.547Z,10.11
2022-10-25T20:24:14.263Z,10.19
2022-10-25T20:27:19.997Z,10.14
2022-10-25T20:30:25.955Z,10.26
2022-10-25T20:33:31.937Z,10.24
2022-10-25T20:36:41.550Z,10.12
2022-10-25T20:39:47.741Z,10.21
2022-10-25T20:42:53.761Z,10.28
2022-10-25T20:45:59.766Z,10.25
2022-10-25T20:49:07.602Z,10.24
2022-10-25T20:52:17.407Z,10.14
2022-10-25T20:55:24.011Z,10.10
2022-10-25T20:58:30.205Z,10.14
2022-10-25T21:01:36.196Z,10.14
2022-10-25T21:04:53.047Z,10.15
2022-10-25T21:08:02.699Z,10.11
2022-10-25T21:11:13.350Z,10.09
2022-10-25T21:14:19.121Z,10.13
2022-10-25T21:17:25.501Z,10.13
2022-10-25T21:20:32.823Z,10.13
2022-10-25T21:23:41.244Z,10.16
2022-10-25T21:26:47.832Z,10.22
2022-10-25T21:29:53.639Z,10.23
2022-10-25T21:32:59.285Z,10.32
2022-10-25T21:36:12.507Z,10.43
2022-10-25T21:39:24.220Z,10.43
2022-10-25T21:42:40.257Z,10.53
2022-10-25T21:45:45.904Z,10.61
2022-10-25T21:48:53.370Z,10.67
2022-10-25T21:51:59.306Z,10.61
2022-10-25T21:55:08.770Z,10.52
2022-10-25T21:58:14.361Z,10.48
2022-10-25T22:01:29.612Z,10.49
2022-10-25T22:04:35.373Z,10.49
2022-10-25T22:07:40.956Z,10.36
2022-10-25T22:14:09.306Z,10.27
2022-10-25T22:17:15.099Z,10.28
2022-10-25T22:20:20.791Z,10.12
2022-10-25T22:23:28.811Z,10.08
2022-10-25T22:26:38.471Z,9.95
2022-10-25T22:29:44.091Z,9.85
2022-10-25T22:32:50.064Z,9.83
2022-10-25T22:36:17.450Z,9.83
2022-10-25T22:39:23.114Z,9.84
2022-10-25T22:42:31.310Z,9.84
2022-10-25T22:45:38.177Z,9.79
2022-10-25T22:48:46.820Z,9.81
2022-10-25T22:51:52.479Z,9.76
2022-10-25T22:55:00.534Z,9.78
2022-10-25T22:58:10.143Z,9.79
2022-10-25T23:01:24.473Z,9.81
2022-10-25T23:04:30.220Z,9.86
2022-10-25T23:07:35.865Z,9.81
2022-10-25T23:10:41.512Z,9.87
2022-10-25T23:13:50.455Z,9.79
2022-10-25T23:16:55.996Z,9.82
2022-10-25T23:20:05.059Z,9.82
2022-10-25T23:23:10.693Z,9.81
2022-10-25T23:26:22.902Z,9.65
2022-10-25T23:29:31.087Z,9.60
2022-10-25T23:32:36.686Z,9.57
2022-10-25T23:35:44.813Z,9.64
2022-10-25T23:38:51.939Z,9.63
2022-10-25T23:41:57.617Z,9.65
2022-10-25T23:45:10.569Z,9.64
2022-10-25T23:48:21.307Z,9.47
2022-10-25T23:51:26.924Z,9.50
2022-10-25T23:54:34.187Z,9.47
2022-10-25T23:57:40.069Z,9.46
